createdAt,value
2019-01-08T00:00:03.778Z,-1.38
2019-01-08T00:03:07.218Z,-1.52
2019-01-08T00:06:07.525Z,-1.48
2019-01-08T00:09:07.597Z,-1.51
2019-01-08T00:12:06.953Z,-1.50
2019-01-08T00:15:06.915Z,-1.46
2019-01-08T00:18:07.178Z,-1.35
2019-01-08T00:20:56.067Z,-1.26
2019-01-08T00:23:55.459Z,-1.26
2019-01-08T00:26:35.246Z,-1.26
2019-01-08T00:29:34.864Z,-1.11
2019-01-08T00:32:13.802Z,-1.15
2019-01-08T00:35:14.132Z,-1.25
2019-01-08T00:37:41.803Z,-1.35
2019-01-08T00:40:21.487Z,-1.23
2019-01-08T00:43:20.929Z,-1.15
2019-01-08T00:45:48.787Z,-1.17
2019-01-08T00:48:48.478Z,-1.03
2019-01-08T00:51:16.175Z,-1.03
2019-01-08T00:53:56.206Z,-1.03
2019-01-08T00:56:55.935Z,-1.00
2019-01-08T00:59:35.692Z,-0.98
2019-01-08T01:02:35.439Z,-0.87
2019-01-08T01:05:22.536Z,-0.96
2019-01-08T01:07:50.160Z,-1.01
2019-01-08T01:10:49.613Z,-0.91
2019-01-08T01:13:17.269Z,-0.89
2019-01-08T01:16:17.095Z,-0.93
2019-01-08T01:19:17.141Z,-0.86
2019-01-08T01:25:17.504Z,-0.96
2019-01-08T01:28:17.755Z,-0.98
2019-01-08T01:30:45.432Z,-1.16
2019-01-08T01:36:21.886Z,-1.15
2019-01-08T01:41:51.129Z,-1.13
2019-01-08T01:44:50.502Z,-1.12
2019-01-08T01:47:29.626Z,-1.05
2019-01-08T01:49:57.620Z,-1.08
2019-01-08T01:52:46.553Z,-1.14
2019-01-08T01:55:46.045Z,-1.20
2019-01-08T01:58:46.339Z,-1.14
2019-01-08T02:01:46.410Z,-1.13
2019-01-08T02:04:25.464Z,-1.21
2019-01-08T02:07:25.640Z,-1.24
2019-01-08T02:10:05.526Z,-1.24
2019-01-08T02:13:05.099Z,-1.24
2019-01-08T02:18:46.614Z,-1.24
2019-01-08T02:21:46.158Z,-1.36
2019-01-08T02:24:46.437Z,-1.37
2019-01-08T02:27:46.682Z,-1.30
2019-01-08T02:37:17.755Z,-1.30
2019-01-08T02:40:18.111Z,-1.39
2019-01-08T02:43:18.477Z,-1.50
2019-01-08T02:46:18.924Z,-1.45
2019-01-08T02:49:19.297Z,-1.59
2019-01-08T02:52:19.595Z,-1.54
2019-01-08T02:54:59.608Z,-1.58
2019-01-08T02:57:48.718Z,-1.70
2019-01-08T03:03:38.430Z,-1.69
2019-01-08T03:09:39.901Z,-1.53
2019-01-08T03:12:41.331Z,-1.66
2019-01-08T03:18:56.152Z,-1.59
2019-01-08T03:21:56.417Z,-1.68
2019-01-08T03:24:55.873Z,-1.86
2019-01-08T03:27:56.236Z,-1.91
2019-01-08T03:30:56.355Z,-1.78
2019-01-08T03:33:56.236Z,-1.88
2019-01-08T03:36:57.026Z,-1.94
2019-01-08T03:39:57.265Z,-1.80
2019-01-08T03:42:44.542Z,-1.84
2019-01-08T03:45:44.507Z,-1.76
2019-01-08T03:48:45.972Z,-1.88
2019-01-08T03:51:46.103Z,-1.85
2019-01-08T03:54:46.246Z,-1.90
2019-01-08T03:57:45.686Z,-1.87
2019-01-08T04:00:45.917Z,-1.97
2019-01-08T04:03:45.959Z,-2.01
2019-01-08T04:06:46.415Z,-1.87
2019-01-08T04:09:27.183Z,-1.81
2019-01-08T04:12:27.226Z,-1.81
2019-01-08T04:15:14.506Z,-1.90
2019-01-08T04:24:19.791Z,-1.98
2019-01-08T04:30:21.305Z,-1.81
2019-01-08T04:36:22.938Z,-1.78
2019-01-08T04:48:27.718Z,-1.71
2019-01-08T04:51:27.947Z,-1.68
2019-01-08T04:56:58.247Z,-1.63
2019-01-08T04:59:59.035Z,-1.69
2019-01-08T05:05:30.414Z,-1.62
2019-01-08T05:11:32.972Z,-1.53
2019-01-08T05:14:33.271Z,-1.56
2019-01-08T05:17:33.551Z,-1.73
2019-01-08T05:20:33.536Z,-1.68
2019-01-08T05:23:01.215Z,-1.78
2019-01-08T05:25:40.667Z,-1.75
2019-01-08T05:28:22.288Z,-1.71
2019-01-08T05:31:03.919Z,-1.72
2019-01-08T05:33:44.146Z,-1.74
2019-01-08T05:39:44.654Z,-1.68
2019-01-08T05:42:44.138Z,-1.74
2019-01-08T05:45:44.274Z,-1.67
2019-01-08T05:48:33.383Z,-1.58
2019-01-08T05:51:32.787Z,-1.60
2019-01-08T05:54:32.776Z,-1.60
2019-01-08T05:57:00.667Z,-1.60
2019-01-08T06:00:00.924Z,-1.60
2019-01-08T06:02:40.723Z,-1.70
2019-01-08T06:05:08.699Z,-1.60
2019-01-08T06:08:08.481Z,-1.59
2019-01-08T06:10:36.145Z,-1.62
2019-01-08T06:13:35.661Z,-1.64
2019-01-08T06:16:03.270Z,-1.79
2019-01-08T06:18:53.586Z,-1.82
2019-01-08T06:21:53.889Z,-1.78
2019-01-08T06:24:33.497Z,-1.79
2019-01-08T06:27:33.113Z,-1.81
2019-01-08T06:30:33.338Z,-1.75
2019-01-08T06:33:32.795Z,-1.76
2019-01-08T06:36:33.063Z,-1.74
2019-01-08T06:42:37.526Z,-1.77
2019-01-08T06:45:37.742Z,-1.86
2019-01-08T06:48:05.551Z,-1.86
2019-01-08T06:51:05.904Z,-1.81
2019-01-08T06:54:05.911Z,-1.78
2019-01-08T06:57:06.124Z,-1.87
2019-01-08T07:00:06.380Z,-1.87
2019-01-08T07:03:06.564Z,-1.78
2019-01-08T07:05:45.579Z,-1.75
2019-01-08T07:08:44.927Z,-1.79
2019-01-08T07:11:44.877Z,-1.77
2019-01-08T07:17:22.095Z,-1.82
2019-01-08T07:19:50.153Z,-1.73
2019-01-08T07:22:49.759Z,-1.63
2019-01-08T07:25:17.443Z,-1.57
2019-01-08T07:28:06.352Z,-1.53
2019-01-08T07:30:41.268Z,-1.51
2019-01-08T07:36:18.253Z,-1.36
2019-01-08T07:39:18.348Z,-1.42
2019-01-08T07:42:05.422Z,-1.40
2019-01-08T07:45:05.269Z,-1.38
2019-01-08T07:47:33.031Z,-1.24
2019-01-08T07:52:41.248Z,-1.28
2019-01-08T07:55:41.191Z,-1.30
2019-01-08T07:58:41.393Z,-1.22
2019-01-08T08:01:09.214Z,-1.19
2019-01-08T08:04:10.429Z,-1.31
2019-01-08T08:06:38.129Z,-1.17
2019-01-08T08:09:25.310Z,-1.14
2019-01-08T08:15:19.029Z,-1.20
2019-01-08T08:18:19.191Z,-1.07
2019-01-08T08:21:19.276Z,-1.06
2019-01-08T08:27:11.451Z,-1.03
2019-01-08T08:30:10.929Z,-1.05
2019-01-08T08:33:11.370Z,-1.01
2019-01-08T08:36:00.387Z,-0.95
2019-01-08T08:39:00.530Z,-0.89
2019-01-08T08:41:28.497Z,-0.92
2019-01-08T08:44:17.472Z,-0.93
2019-01-08T08:47:17.654Z,-1.07
2019-01-08T08:49:45.287Z,-1.01
2019-01-08T08:52:32.788Z,-0.91
2019-01-08T08:55:02.292Z,-0.81
2019-01-08T08:58:02.071Z,-0.88
2019-01-08T09:00:43.630Z,-0.95
2019-01-08T09:03:43.305Z,-0.91
2019-01-08T09:09:32.649Z,-0.75
2019-01-08T09:12:21.627Z,-0.72
2019-01-08T09:15:24.469Z,-0.63
2019-01-08T09:18:11.857Z,-0.53
2019-01-08T09:21:12.042Z,-0.51
2019-01-08T09:24:12.480Z,-0.54
2019-01-08T09:27:12.577Z,-0.37
2019-01-08T09:32:41.766Z,-0.35
2019-01-08T09:35:23.601Z,-0.23
2019-01-08T09:38:22.986Z,-0.22
2019-01-08T09:40:50.788Z,-0.07
2019-01-08T09:43:52.103Z,0.12
2019-01-08T09:46:39.199Z,0.16
2019-01-08T09:49:28.167Z,0.16
2019-01-08T09:52:27.552Z,0.24
2019-01-08T09:58:32.651Z,0.28
2019-01-08T10:01:00.374Z,0.38
2019-01-08T10:04:00.441Z,0.25
2019-01-08T10:06:28.332Z,0.06
2019-01-08T10:09:27.694Z,-0.09
2019-01-08T10:14:59.220Z,0.03
2019-01-08T10:17:58.501Z,-0.04
2019-01-08T10:20:58.670Z,-0.08
2019-01-08T10:23:58.738Z,-0.19
2019-01-08T10:26:58.940Z,-0.07
2019-01-08T10:33:00.359Z,0.00
2019-01-08T10:35:39.377Z,0.00
2019-01-08T10:41:19.760Z,-0.10
2019-01-08T10:44:19.527Z,-0.13
2019-01-08T10:47:18.840Z,-0.06
2019-01-08T10:49:58.015Z,0.00
2019-01-08T10:59:07.690Z,-0.06
2019-01-08T11:05:06.495Z,-0.03
2019-01-08T11:08:06.724Z,0.06
2019-01-08T11:11:07.014Z,0.24
2019-01-08T11:14:06.466Z,0.21
2019-01-08T11:16:46.101Z,0.26
2019-01-08T11:19:48.661Z,0.18
2019-01-08T11:22:47.999Z,0.20
2019-01-08T11:25:37.010Z,0.13
2019-01-08T11:28:50.660Z,0.24
2019-01-08T11:31:50.899Z,0.23
2019-01-08T11:34:29.965Z,0.37
2019-01-08T11:39:59.376Z,0.57
2019-01-08T11:43:01.251Z,0.59
2019-01-08T11:46:01.451Z,0.82
2019-01-08T11:49:01.761Z,0.85
2019-01-08T11:51:43.274Z,0.82
2019-01-08T11:54:43.078Z,0.69
2019-01-08T11:57:42.499Z,0.64
2019-01-08T12:00:30.276Z,0.74
2019-01-08T12:03:30.622Z,0.77
2019-01-08T12:08:49.723Z,0.94
2019-01-08T12:11:49.861Z,1.06
2019-01-08T12:14:17.719Z,1.07
2019-01-08T12:16:56.922Z,1.00
2019-01-08T12:19:57.323Z,1.00
2019-01-08T12:22:57.379Z,1.02
2019-01-08T12:25:57.515Z,0.94
2019-01-08T12:28:25.462Z,1.09
2019-01-08T12:34:27.076Z,1.05
2019-01-08T12:40:10.855Z,1.72
2019-01-08T12:43:11.108Z,2.35
2019-01-08T12:49:11.022Z,3.26
2019-01-08T12:54:51.610Z,3.97
2019-01-08T12:57:40.644Z,3.81
2019-01-08T13:00:09.167Z,4.06
2019-01-08T13:03:09.223Z,4.23
2019-01-08T13:05:49.014Z,4.36
2019-01-08T13:08:48.681Z,4.68
2019-01-08T13:11:48.021Z,4.61
2019-01-08T13:14:48.200Z,4.47
2019-01-08T13:17:48.468Z,4.41
2019-01-08T13:20:16.331Z,4.39
2019-01-08T13:23:16.757Z,4.28
2019-01-08T13:28:47.224Z,4.53
2019-01-08T13:31:15.024Z,4.69
2019-01-08T13:36:43.815Z,4.83
2019-01-08T13:39:32.953Z,4.64
2019-01-08T13:42:12.143Z,4.24
2019-01-08T13:44:39.894Z,4.21
2019-01-08T13:50:19.470Z,4.00
2019-01-08T13:53:19.657Z,3.70
2019-01-08T13:55:47.495Z,3.98
2019-01-08T13:58:26.688Z,3.85
2019-01-08T14:00:54.423Z,4.20
2019-01-08T14:03:36.463Z,4.53
2019-01-08T14:06:15.678Z,4.61
2019-01-08T14:08:55.246Z,4.69
2019-01-08T14:11:44.353Z,4.69
2019-01-08T14:14:33.253Z,4.76
2019-01-08T14:20:02.415Z,4.36
2019-01-08T14:25:13.648Z,4.32
2019-01-08T14:28:13.769Z,4.05
2019-01-08T14:31:13.775Z,3.92
2019-01-08T14:33:41.522Z,3.77
2019-01-08T14:36:09.184Z,3.76
2019-01-08T14:38:36.773Z,3.31
2019-01-08T14:41:04.464Z,3.16
2019-01-08T14:43:32.060Z,2.90
2019-01-08T14:45:59.756Z,2.62
2019-01-08T14:48:27.485Z,2.58
2019-01-08T14:51:07.745Z,2.43
2019-01-08T14:53:35.534Z,2.45
2019-01-08T14:56:03.427Z,2.28
2019-01-08T14:58:31.266Z,2.09
2019-01-08T15:01:31.446Z,2.11
2019-01-08T15:04:10.778Z,1.83
2019-01-08T15:06:38.541Z,1.66
2019-01-08T15:09:38.848Z,1.64
2019-01-08T15:12:06.591Z,1.65
2019-01-08T15:15:06.156Z,1.46
2019-01-08T15:17:33.929Z,1.41
2019-01-08T15:20:28.001Z,1.37
2019-01-08T15:23:27.884Z,1.24
2019-01-08T15:26:27.209Z,1.25
2019-01-08T15:32:28.780Z,0.96
2019-01-08T15:38:19.334Z,0.68
2019-01-08T15:44:20.895Z,0.67
2019-01-08T15:53:24.608Z,0.66
2019-01-08T15:59:13.426Z,0.43
2019-01-08T16:02:13.444Z,0.25
2019-01-08T16:05:13.760Z,0.19
2019-01-08T16:11:04.019Z,0.00
2019-01-08T16:14:03.809Z,-0.03
2019-01-08T16:17:04.072Z,-0.02
2019-01-08T16:19:52.995Z,-0.27
2019-01-08T16:22:53.283Z,-0.31
2019-01-08T16:25:52.472Z,-0.38
2019-01-08T16:28:52.691Z,-0.37
2019-01-08T16:31:52.839Z,-0.34
2019-01-08T16:34:53.125Z,-0.32
2019-01-08T16:37:53.267Z,-0.37
2019-01-08T16:40:21.007Z,-0.36
2019-01-08T16:43:20.606Z,-0.36
2019-01-08T16:45:48.358Z,-0.41
2019-01-08T16:48:48.714Z,-0.54
2019-01-08T16:51:16.574Z,-0.59
2019-01-08T16:54:10.300Z,-0.61
2019-01-08T16:56:59.401Z,-0.62
2019-01-08T16:59:40.019Z,-0.69
2019-01-08T17:02:07.670Z,-0.69
2019-01-08T17:04:56.575Z,-0.36
2019-01-08T17:07:56.472Z,-0.20
2019-01-08T17:10:24.372Z,0.02
2019-01-08T17:13:04.401Z,-0.01
2019-01-08T17:18:35.005Z,-0.06
2019-01-08T17:21:34.565Z,-0.08
2019-01-08T17:24:34.665Z,0.28
2019-01-08T17:27:02.395Z,0.32
2019-01-08T17:32:38.592Z,0.01
2019-01-08T17:35:37.824Z,0.42
2019-01-08T17:38:39.318Z,0.36
2019-01-08T17:41:07.095Z,0.34
2019-01-08T17:44:06.503Z,0.16
2019-01-08T17:47:06.773Z,0.26
2019-01-08T17:53:08.024Z,0.66
2019-01-08T17:55:53.835Z,0.69
2019-01-08T17:58:33.789Z,0.77
2019-01-08T18:01:25.367Z,0.52
2019-01-08T18:13:38.560Z,0.22
2019-01-08T18:16:17.662Z,0.06
2019-01-08T18:25:10.023Z,0.86
2019-01-08T18:27:49.079Z,0.68
2019-01-08T18:33:51.708Z,0.76
2019-01-08T18:36:41.105Z,0.55
2019-01-08T18:39:30.153Z,0.45
2019-01-08T18:45:32.009Z,0.07
2019-01-08T18:48:32.331Z,0.13
2019-01-08T18:51:12.829Z,-0.13
2019-01-08T18:54:12.418Z,-0.19
2019-01-08T18:57:13.862Z,-0.28
2019-01-08T18:59:53.617Z,-0.32
2019-01-08T19:02:53.159Z,-0.41
2019-01-08T19:05:53.365Z,-0.39
2019-01-08T19:08:53.561Z,-0.57
2019-01-08T19:15:04.580Z,-1.02
2019-01-08T19:17:32.577Z,-1.06
2019-01-08T19:20:32.331Z,-1.19
2019-01-08T19:23:00.117Z,-1.32
2019-01-08T19:25:27.869Z,-1.34
2019-01-08T19:28:27.426Z,-1.46
2019-01-08T19:31:26.776Z,-1.61
2019-01-08T19:34:15.904Z,-1.75
2019-01-08T19:36:55.190Z,-1.99
2019-01-08T19:39:55.422Z,-2.05
2019-01-08T19:42:23.196Z,-1.97
2019-01-08T19:45:23.444Z,-2.11
2019-01-08T19:47:51.371Z,-2.07
2019-01-08T19:50:50.978Z,-2.27
2019-01-08T19:53:39.657Z,-2.26
2019-01-08T19:56:18.768Z,-2.26
2019-01-08T19:58:57.807Z,-2.36
2019-01-08T20:01:46.795Z,-2.30
2019-01-08T20:04:46.448Z,-2.36
2019-01-08T20:07:27.178Z,-2.35
2019-01-08T20:10:26.681Z,-2.28
2019-01-08T20:18:52.138Z,-2.22
2019-01-08T20:21:52.079Z,-2.30
2019-01-08T20:24:19.864Z,-2.36
2019-01-08T20:27:20.260Z,-2.39
2019-01-08T20:29:48.094Z,-2.38
2019-01-08T20:32:27.227Z,-2.41
2019-01-08T20:34:54.915Z,-2.40
2019-01-08T20:37:22.669Z,-2.38
2019-01-08T20:40:22.871Z,-2.41
2019-01-08T20:43:22.910Z,-2.45
2019-01-08T20:46:23.057Z,-2.71
2019-01-08T20:49:22.356Z,-2.80
2019-01-08T20:51:50.033Z,-2.86
2019-01-08T20:54:49.566Z,-2.87
2019-01-08T20:57:17.283Z,-2.92
2019-01-08T21:00:17.180Z,-2.97
2019-01-08T21:03:05.284Z,-2.91
2019-01-08T21:09:25.829Z,-2.95
2019-01-08T21:15:04.188Z,-2.91
2019-01-08T21:17:44.248Z,-2.90
2019-01-08T21:23:18.556Z,-2.89
2019-01-08T21:28:47.552Z,-2.90
2019-01-08T21:31:26.496Z,-2.91
2019-01-08T21:34:15.481Z,-2.90
2019-01-08T21:37:04.376Z,-2.93
2019-01-08T21:40:04.719Z,-2.97
2019-01-08T21:43:04.077Z,-2.97
2019-01-08T21:46:04.025Z,-3.01
2019-01-08T21:48:43.109Z,-3.09
2019-01-08T21:51:44.935Z,-3.09
2019-01-08T21:54:45.111Z,-3.09
2019-01-08T21:57:32.363Z,-3.17
2019-01-08T22:00:13.485Z,-3.16
2019-01-08T22:03:21.862Z,-3.18
2019-01-08T22:06:22.560Z,-3.18
2019-01-08T22:09:11.556Z,-3.22
2019-01-08T22:11:58.742Z,-3.19
2019-01-08T22:14:40.199Z,-3.29
2019-01-08T22:17:07.893Z,-3.17
2019-01-08T22:19:36.120Z,-3.20
2019-01-08T22:22:52.361Z,-3.10
2019-01-08T22:26:06.396Z,-3.06
2019-01-08T22:28:34.040Z,-3.00
2019-01-08T22:34:02.464Z,-2.78
2019-01-08T22:37:02.700Z,-2.76
2019-01-08T22:39:30.407Z,-2.79
2019-01-08T22:42:24.400Z,-2.59
2019-01-08T22:45:13.346Z,-2.57
2019-01-08T22:47:41.042Z,-2.49
2019-01-08T22:50:41.253Z,-2.43
2019-01-08T22:53:08.945Z,-2.44
2019-01-08T22:58:37.806Z,-2.28
2019-01-08T23:01:25.056Z,-2.30
2019-01-08T23:04:14.077Z,-2.20
2019-01-08T23:07:07.569Z,-2.29
2019-01-08T23:10:07.205Z,-2.37
2019-01-08T23:13:07.486Z,-2.31
2019-01-08T23:18:14.495Z,-2.22
2019-01-08T23:23:21.936Z,-2.21
2019-01-08T23:25:51.535Z,-2.13
2019-01-08T23:28:31.912Z,-2.07
2019-01-08T23:31:10.953Z,-2.02
2019-01-08T23:34:10.532Z,-1.91
2019-01-08T23:37:10.701Z,-1.89
2019-01-08T23:39:38.418Z,-1.91
2019-01-08T23:42:38.124Z,-1.90
2019-01-08T23:45:38.296Z,-1.81
2019-01-08T23:48:19.789Z,-1.76
2019-01-08T23:53:57.748Z,-1.94
2019-01-08T23:56:57.822Z,-1.82
2019-01-08T23:59:58.050Z,-1.73
